sensor_id;sensor_type;location;lat;lon;timestamp;temperature;humidity
63219;DHT22;49320;52.512;13.448;2023-08-17T00:01:57;24.00;64.20
63219;DHT22;49320;52.512;13.448;2023-08-17T00:04:24;23.90;63.40
63219;DHT22;49320;52.512;13.448;2023-08-17T00:06:51;24.00;64.20
63219;DHT22;49320;52.512;13.448;2023-08-17T00:09:18;23.90;64.20
63219;DHT22;49320;52.512;13.448;2023-08-17T00:11:45;23.80;64.20
63219;DHT22;49320;52.512;13.448;2023-08-17T00:14:11;23.90;64.40
63219;DHT22;49320;52.512;13.448;2023-08-17T00:16:39;23.90;63.90
63219;DHT22;49320;52.512;13.448;2023-08-17T00:19:06;23.90;64.60
63219;DHT22;49320;52.512;13.448;2023-08-17T00:21:32;23.80;64.60
63219;DHT22;49320;52.512;13.448;2023-08-17T00:23:59;23.80;64.70
63219;DHT22;49320;52.512;13.448;2023-08-17T00:26:26;23.80;64.80
63219;DHT22;49320;52.512;13.448;2023-08-17T00:28:54;23.70;64.60
63219;DHT22;49320;52.512;13.448;2023-08-17T00:31:21;23.70;64.70
63219;DHT22;49320;52.512;13.448;2023-08-17T00:33:48;23.70;64.30
63219;DHT22;49320;52.512;13.448;2023-08-17T00:36:15;23.70;65.00
63219;DHT22;49320;52.512;13.448;2023-08-17T00:38:41;23.60;65.10
63219;DHT22;49320;52.512;13.448;2023-08-17T00:41:08;23.60;65.10
63219;DHT22;49320;52.512;13.448;2023-08-17T00:43:35;23.60;65.30
63219;DHT22;49320;52.512;13.448;2023-08-17T00:46:02;23.50;64.70
63219;DHT22;49320;52.512;13.448;2023-08-17T00:48:29;23.50;65.50
63219;DHT22;49320;52.512;13.448;2023-08-17T00:50:58;23.50;65.50
63219;DHT22;49320;52.512;13.448;2023-08-17T00:53:27;23.40;65.60
63219;DHT22;49320;52.512;13.448;2023-08-17T00:55:57;23.40;65.80
63219;DHT22;49320;52.512;13.448;2023-08-17T00:58:27;23.40;65.70
63219;DHT22;49320;52.512;13.448;2023-08-17T01:00:54;23.40;66.00
63219;DHT22;49320;52.512;13.448;2023-08-17T01:03:22;23.30;66.00
63219;DHT22;49320;52.512;13.448;2023-08-17T01:05:50;23.30;66.70
63219;DHT22;49320;52.512;13.448;2023-08-17T01:08:16;23.30;66.10
63219;DHT22;49320;52.512;13.448;2023-08-17T01:14:19;23.30;66.80
63219;DHT22;49320;52.512;13.448;2023-08-17T01:19:33;23.20;66.60
63219;DHT22;49320;52.512;13.448;2023-08-17T01:22:03;23.10;66.30
63219;DHT22;49320;52.512;13.448;2023-08-17T01:24:31;23.10;66.60
63219;DHT22;49320;52.512;13.448;2023-08-17T01:26:58;23.10;66.50
63219;DHT22;49320;52.512;13.448;2023-08-17T01:29:26;23.10;66.60
63219;DHT22;49320;52.512;13.448;2023-08-17T01:34:57;23.10;67.00
63219;DHT22;49320;52.512;13.448;2023-08-17T01:37:28;23.00;66.40
63219;DHT22;49320;52.512;13.448;2023-08-17T01:39:59;23.00;66.90
63219;DHT22;49320;52.512;13.448;2023-08-17T01:42:25;23.20;67.00
63219;DHT22;49320;52.512;13.448;2023-08-17T01:44:53;23.00;67.00
63219;DHT22;49320;52.512;13.448;2023-08-17T01:47:21;22.90;66.90
63219;DHT22;49320;52.512;13.448;2023-08-17T01:49:49;22.90;67.30
63219;DHT22;49320;52.512;13.448;2023-08-17T01:52:16;22.90;67.40
63219;DHT22;49320;52.512;13.448;2023-08-17T01:54:43;23.10;67.50
63219;DHT22;49320;52.512;13.448;2023-08-17T01:57:10;22.90;67.50
63219;DHT22;49320;52.512;13.448;2023-08-17T01:59:37;22.90;67.60
63219;DHT22;49320;52.512;13.448;2023-08-17T02:02:03;22.90;67.80
63219;DHT22;49320;52.512;13.448;2023-08-17T02:04:30;22.80;67.80
63219;DHT22;49320;52.512;13.448;2023-08-17T02:06:57;22.90;67.80
63219;DHT22;49320;52.512;13.448;2023-08-17T02:09:24;22.80;67.80
63219;DHT22;49320;52.512;13.448;2023-08-17T02:11:52;22.80;67.90
63219;DHT22;49320;52.512;13.448;2023-08-17T02:14:19;22.80;68.00
63219;DHT22;49320;52.512;13.448;2023-08-17T02:16:46;22.70;68.00
63219;DHT22;49320;52.512;13.448;2023-08-17T02:19:12;22.80;68.10
63219;DHT22;49320;52.512;13.448;2023-08-17T02:21:39;22.80;68.30
63219;DHT22;49320;52.512;13.448;2023-08-17T02:24:06;22.70;68.30
63219;DHT22;49320;52.512;13.448;2023-08-17T02:26:33;22.70;68.30
63219;DHT22;49320;52.512;13.448;2023-08-17T02:29:00;22.70;68.90
63219;DHT22;49320;52.512;13.448;2023-08-17T02:31:27;22.70;67.90
63219;DHT22;49320;52.512;13.448;2023-08-17T02:33:53;22.70;68.60
63219;DHT22;49320;52.512;13.448;2023-08-17T02:36:24;22.60;68.60
63219;DHT22;49320;52.512;13.448;2023-08-17T02:38:51;22.60;68.10
63219;DHT22;49320;52.512;13.448;2023-08-17T02:43:45;22.60;68.10
63219;DHT22;49320;52.512;13.448;2023-08-17T02:46:12;22.60;69.00
63219;DHT22;49320;52.512;13.448;2023-08-17T02:48:39;22.60;69.00
63219;DHT22;49320;52.512;13.448;2023-08-17T02:51:05;22.50;68.90
63219;DHT22;49320;52.512;13.448;2023-08-17T02:53:32;22.40;68.90
63219;DHT22;49320;52.512;13.448;2023-08-17T02:55:59;22.50;69.00
63219;DHT22;49320;52.512;13.448;2023-08-17T02:58:26;22.40;68.70
63219;DHT22;49320;52.512;13.448;2023-08-17T03:00:53;22.40;69.20
63219;DHT22;49320;52.512;13.448;2023-08-17T03:03:20;22.40;69.30
63219;DHT22;49320;52.512;13.448;2023-08-17T03:05:47;22.40;69.40
63219;DHT22;49320;52.512;13.448;2023-08-17T03:08:14;22.40;69.50
63219;DHT22;49320;52.512;13.448;2023-08-17T03:10:41;22.40;69.80
63219;DHT22;49320;52.512;13.448;2023-08-17T03:13:07;22.40;69.70
63219;DHT22;49320;52.512;13.448;2023-08-17T03:15:35;22.30;69.50
63219;DHT22;49320;52.512;13.448;2023-08-17T03:18:06;22.40;69.60
63219;DHT22;49320;52.512;13.448;2023-08-17T03:20:33;22.40;69.60
63219;DHT22;49320;52.512;13.448;2023-08-17T03:23:00;22.40;69.70
63219;DHT22;49320;52.512;13.448;2023-08-17T03:25:27;22.30;69.70
63219;DHT22;49320;52.512;13.448;2023-08-17T03:27:54;22.30;69.60
63219;DHT22;49320;52.512;13.448;2023-08-17T03:30:20;22.30;69.60
63219;DHT22;49320;52.512;13.448;2023-08-17T03:32:47;22.20;69.60
63219;DHT22;49320;52.512;13.448;2023-08-17T03:35:14;22.30;68.90
63219;DHT22;49320;52.512;13.448;2023-08-17T03:37:41;22.30;69.60
63219;DHT22;49320;52.512;13.448;2023-08-17T03:40:08;22.40;69.80
63219;DHT22;49320;52.512;13.448;2023-08-17T03:42:35;22.30;69.50
63219;DHT22;49320;52.512;13.448;2023-08-17T03:45:03;22.30;70.20
63219;DHT22;49320;52.512;13.448;2023-08-17T03:47:30;22.30;69.40
63219;DHT22;49320;52.512;13.448;2023-08-17T03:49:57;22.30;69.30
63219;DHT22;49320;52.512;13.448;2023-08-17T03:52:24;22.30;69.20
63219;DHT22;49320;52.512;13.448;2023-08-17T03:54:51;22.30;69.20
63219;DHT22;49320;52.512;13.448;2023-08-17T03:57:18;22.40;69.30
63219;DHT22;49320;52.512;13.448;2023-08-17T03:59:45;22.40;69.10
63219;DHT22;49320;52.512;13.448;2023-08-17T04:02:11;22.40;68.60
63219;DHT22;49320;52.512;13.448;2023-08-17T04:04:38;22.40;68.90
63219;DHT22;49320;52.512;13.448;2023-08-17T04:07:05;22.30;68.80
63219;DHT22;49320;52.512;13.448;2023-08-17T04:09:33;22.30;68.70
63219;DHT22;49320;52.512;13.448;2023-08-17T04:14:30;22.40;68.00
63219;DHT22;49320;52.512;13.448;2023-08-17T04:16:57;22.40;68.50
63219;DHT22;49320;52.512;13.448;2023-08-17T04:19:24;22.40;69.00
63219;DHT22;49320;52.512;13.448;2023-08-17T04:21:52;22.40;67.80
63219;DHT22;49320;52.512;13.448;2023-08-17T04:24:18;22.40;68.20
63219;DHT22;49320;52.512;13.448;2023-08-17T04:26:45;22.40;68.20
63219;DHT22;49320;52.512;13.448;2023-08-17T04:29:13;22.40;67.50
63219;DHT22;49320;52.512;13.448;2023-08-17T04:31:39;22.40;67.30
63219;DHT22;49320;52.512;13.448;2023-08-17T04:34:06;22.50;67.90
63219;DHT22;49320;52.512;13.448;2023-08-17T04:36:33;22.50;67.70
63219;DHT22;49320;52.512;13.448;2023-08-17T04:39:00;22.50;67.60
63219;DHT22;49320;52.512;13.448;2023-08-17T04:41:27;22.50;67.60
63219;DHT22;49320;52.512;13.448;2023-08-17T04:43:53;22.30;67.40
63219;DHT22;49320;52.512;13.448;2023-08-17T04:46:20;22.50;67.40
63219;DHT22;49320;52.512;13.448;2023-08-17T04:48:47;22.60;67.40
63219;DHT22;49320;52.512;13.448;2023-08-17T04:51:14;22.60;67.30
63219;DHT22;49320;52.512;13.448;2023-08-17T04:53:42;22.60;67.20
63219;DHT22;49320;52.512;13.448;2023-08-17T04:56:09;22.60;67.10
63219;DHT22;49320;52.512;13.448;2023-08-17T04:58:36;22.70;67.00
63219;DHT22;49320;52.512;13.448;2023-08-17T05:01:03;22.70;66.90
63219;DHT22;49320;52.512;13.448;2023-08-17T05:03:30;22.70;66.10
63219;DHT22;49320;52.512;13.448;2023-08-17T05:08:27;22.80;66.10
63219;DHT22;49320;52.512;13.448;2023-08-17T05:10:53;22.80;66.60
63219;DHT22;49320;52.512;13.448;2023-08-17T05:13:20;22.80;66.50
63219;DHT22;49320;52.512;13.448;2023-08-17T05:15:47;22.80;66.60
63219;DHT22;49320;52.512;13.448;2023-08-17T05:18:14;22.90;66.50
63219;DHT22;49320;52.512;13.448;2023-08-17T05:20:41;23.00;66.40
63219;DHT22;49320;52.512;13.448;2023-08-17T05:23:07;23.10;66.20
63219;DHT22;49320;52.512;13.448;2023-08-17T05:25:34;23.10;66.10
63219;DHT22;49320;52.512;13.448;2023-08-17T05:28:02;23.20;65.20
63219;DHT22;49320;52.512;13.448;2023-08-17T05:30:29;23.20;65.90
63219;DHT22;49320;52.512;13.448;2023-08-17T05:32:55;23.20;65.80
63219;DHT22;49320;52.512;13.448;2023-08-17T05:35:22;23.30;65.70
63219;DHT22;49320;52.512;13.448;2023-08-17T05:37:49;23.40;65.60
63219;DHT22;49320;52.512;13.448;2023-08-17T05:40:16;23.50;65.50
63219;DHT22;49320;52.512;13.448;2023-08-17T05:42:43;23.60;65.30
63219;DHT22;49320;52.512;13.448;2023-08-17T05:45:10;23.80;64.20
63219;DHT22;49320;52.512;13.448;2023-08-17T05:47:37;23.80;64.80
63219;DHT22;49320;52.512;13.448;2023-08-17T05:50:04;23.90;64.60
63219;DHT22;49320;52.512;13.448;2023-08-17T05:52:31;24.00;64.40
63219;DHT22;49320;52.512;13.448;2023-08-17T05:54:58;24.00;64.30
63219;DHT22;49320;52.512;13.448;2023-08-17T05:57:25;24.10;64.10
63219;DHT22;49320;52.512;13.448;2023-08-17T05:59:52;24.20;63.80
63219;DHT22;49320;52.512;13.448;2023-08-17T06:02:19;24.20;63.40
63219;DHT22;49320;52.512;13.448;2023-08-17T06:04:47;24.30;63.40
63219;DHT22;49320;52.512;13.448;2023-08-17T06:07:14;24.30;63.30
63219;DHT22;49320;52.512;13.448;2023-08-17T06:09:41;24.40;63.30
63219;DHT22;49320;52.512;13.448;2023-08-17T06:12:08;24.90;62.50
63219;DHT22;49320;52.512;13.448;2023-08-17T06:14:35;24.40;63.40
63219;DHT22;49320;52.512;13.448;2023-08-17T06:17:02;24.50;63.40
63219;DHT22;49320;52.512;13.448;2023-08-17T06:19:28;24.60;63.30
63219;DHT22;49320;52.512;13.448;2023-08-17T06:21:55;24.60;63.10
63219;DHT22;49320;52.512;13.448;2023-08-17T06:24:22;24.60;63.00
63219;DHT22;49320;52.512;13.448;2023-08-17T06:26:49;24.70;62.20
63219;DHT22;49320;52.512;13.448;2023-08-17T06:29:16;24.70;62.80
63219;DHT22;49320;52.512;13.448;2023-08-17T06:31:43;24.70;62.70
63219;DHT22;49320;52.512;13.448;2023-08-17T06:34:10;24.80;62.60
63219;DHT22;49320;52.512;13.448;2023-08-17T06:36:38;24.70;62.50
63219;DHT22;49320;52.512;13.448;2023-08-17T06:39:04;24.70;62.40
63219;DHT22;49320;52.512;13.448;2023-08-17T06:41:31;24.60;62.30
63219;DHT22;49320;52.512;13.448;2023-08-17T06:43:58;24.70;62.40
63219;DHT22;49320;52.512;13.448;2023-08-17T06:46:25;24.60;62.30
63219;DHT22;49320;52.512;13.448;2023-08-17T06:48:52;24.60;62.40
63219;DHT22;49320;52.512;13.448;2023-08-17T06:51:18;24.60;62.40
63219;DHT22;49320;52.512;13.448;2023-08-17T06:53:45;24.60;62.50
63219;DHT22;49320;52.512;13.448;2023-08-17T06:56:12;24.60;62.50
63219;DHT22;49320;52.512;13.448;2023-08-17T06:58:39;24.70;62.50
63219;DHT22;49320;52.512;13.448;2023-08-17T07:01:06;24.70;62.30
63219;DHT22;49320;52.512;13.448;2023-08-17T07:03:33;24.70;62.20
63219;DHT22;49320;52.512;13.448;2023-08-17T07:05:59;24.80;62.20
63219;DHT22;49320;52.512;13.448;2023-08-17T07:08:26;24.80;62.00
63219;DHT22;49320;52.512;13.448;2023-08-17T07:10:53;24.80;61.90
63219;DHT22;49320;52.512;13.448;2023-08-17T07:13:20;24.90;61.90
63219;DHT22;49320;52.512;13.448;2023-08-17T07:15:47;25.00;61.70
63219;DHT22;49320;52.512;13.448;2023-08-17T07:18:14;25.00;61.50
63219;DHT22;49320;52.512;13.448;2023-08-17T07:20:41;25.10;61.40
63219;DHT22;49320;52.512;13.448;2023-08-17T07:23:07;25.10;61.20
63219;DHT22;49320;52.512;13.448;2023-08-17T07:25:34;25.30;61.30
63219;DHT22;49320;52.512;13.448;2023-08-17T07:28:01;25.40;59.70
63219;DHT22;49320;52.512;13.448;2023-08-17T07:30:28;25.40;60.90
63219;DHT22;49320;52.512;13.448;2023-08-17T07:32:55;25.40;60.80
63219;DHT22;49320;52.512;13.448;2023-08-17T07:35:22;25.50;60.80
63219;DHT22;49320;52.512;13.448;2023-08-17T07:37:49;25.70;60.80
63219;DHT22;49320;52.512;13.448;2023-08-17T07:40:33;25.60;60.70
63219;DHT22;49320;52.512;13.448;2023-08-17T07:43:00;25.50;59.90
63219;DHT22;49320;52.512;13.448;2023-08-17T07:45:28;25.70;60.40
63219;DHT22;49320;52.512;13.448;2023-08-17T07:47:55;25.70;60.30
63219;DHT22;49320;52.512;13.448;2023-08-17T07:50:22;25.70;60.20
63219;DHT22;49320;52.512;13.448;2023-08-17T07:52:48;25.70;60.00
63219;DHT22;49320;52.512;13.448;2023-08-17T07:55:15;25.80;60.10
63219;DHT22;49320;52.512;13.448;2023-08-17T08:00:10;25.90;59.50
63219;DHT22;49320;52.512;13.448;2023-08-17T08:02:37;25.90;59.90
63219;DHT22;49320;52.512;13.448;2023-08-17T08:05:04;26.00;59.40
63219;DHT22;49320;52.512;13.448;2023-08-17T08:07:32;26.00;59.90
63219;DHT22;49320;52.512;13.448;2023-08-17T08:09:59;26.20;58.90
63219;DHT22;49320;52.512;13.448;2023-08-17T08:12:26;26.10;59.70
63219;DHT22;49320;52.512;13.448;2023-08-17T08:14:53;26.20;59.60
63219;DHT22;49320;52.512;13.448;2023-08-17T08:17:19;26.20;59.30
63219;DHT22;49320;52.512;13.448;2023-08-17T08:19:46;26.30;59.40
63219;DHT22;49320;52.512;13.448;2023-08-17T08:24:40;26.30;58.90
63219;DHT22;49320;52.512;13.448;2023-08-17T08:27:10;26.40;58.70
63219;DHT22;49320;52.512;13.448;2023-08-17T08:29:37;26.30;59.40
63219;DHT22;49320;52.512;13.448;2023-08-17T08:32:04;26.40;59.50
63219;DHT22;49320;52.512;13.448;2023-08-17T08:36:58;26.60;58.90
63219;DHT22;49320;52.512;13.448;2023-08-17T08:39:25;26.70;59.40
63219;DHT22;49320;52.512;13.448;2023-08-17T08:41:53;26.70;59.30
63219;DHT22;49320;52.512;13.448;2023-08-17T08:44:21;26.70;59.30
63219;DHT22;49320;52.512;13.448;2023-08-17T08:46:48;26.80;59.30
63219;DHT22;49320;52.512;13.448;2023-08-17T08:49:20;26.80;59.30
63219;DHT22;49320;52.512;13.448;2023-08-17T08:51:51;26.80;59.20
63219;DHT22;49320;52.512;13.448;2023-08-17T08:54:23;26.90;59.30
63219;DHT22;49320;52.512;13.448;2023-08-17T08:57:01;26.90;59.10
63219;DHT22;49320;52.512;13.448;2023-08-17T08:59:33;26.90;59.10
63219;DHT22;49320;52.512;13.448;2023-08-17T09:02:03;26.90;59.10
63219;DHT22;49320;52.512;13.448;2023-08-17T09:04:30;26.90;59.10
63219;DHT22;49320;52.512;13.448;2023-08-17T09:06:57;26.90;59.10
63219;DHT22;49320;52.512;13.448;2023-08-17T09:09:24;26.80;59.70
63219;DHT22;49320;52.512;13.448;2023-08-17T09:11:54;26.90;59.30
63219;DHT22;49320;52.512;13.448;2023-08-17T09:14:21;26.90;59.40
63219;DHT22;49320;52.512;13.448;2023-08-17T09:16:48;26.90;59.50
63219;DHT22;49320;52.512;13.448;2023-08-17T09:19:14;26.90;59.50
63219;DHT22;49320;52.512;13.448;2023-08-17T09:21:41;26.90;59.40
63219;DHT22;49320;52.512;13.448;2023-08-17T09:24:08;26.90;59.40
63219;DHT22;49320;52.512;13.448;2023-08-17T09:26:35;26.90;58.80
63219;DHT22;49320;52.512;13.448;2023-08-17T09:29:16;26.90;59.40
63219;DHT22;49320;52.512;13.448;2023-08-17T09:31:47;26.80;59.40
63219;DHT22;49320;52.512;13.448;2023-08-17T09:34:14;26.80;59.50
63219;DHT22;49320;52.512;13.448;2023-08-17T09:36:45;26.80;59.70
63219;DHT22;49320;52.512;13.448;2023-08-17T09:39:13;26.70;60.30
63219;DHT22;49320;52.512;13.448;2023-08-17T09:41:42;26.80;59.90
63219;DHT22;49320;52.512;13.448;2023-08-17T09:44:09;26.80;60.00
63219;DHT22;49320;52.512;13.448;2023-08-17T09:46:37;26.90;60.10
63219;DHT22;49320;52.512;13.448;2023-08-17T09:49:05;26.90;60.00
63219;DHT22;49320;52.512;13.448;2023-08-17T09:51:33;27.00;60.60
63219;DHT22;49320;52.512;13.448;2023-08-17T09:54:00;27.10;60.60
63219;DHT22;49320;52.512;13.448;2023-08-17T09:56:30;27.30;59.90
63219;DHT22;49320;52.512;13.448;2023-08-17T09:58:58;27.40;59.90
63219;DHT22;49320;52.512;13.448;2023-08-17T10:01:25;27.50;59.80
63219;DHT22;49320;52.512;13.448;2023-08-17T10:03:55;27.50;59.60
63219;DHT22;49320;52.512;13.448;2023-08-17T10:06:26;27.60;59.50
63219;DHT22;49320;52.512;13.448;2023-08-17T10:08:58;27.70;58.80
63219;DHT22;49320;52.512;13.448;2023-08-17T10:11:27;27.80;59.40
63219;DHT22;49320;52.512;13.448;2023-08-17T10:14:02;27.80;59.20
63219;DHT22;49320;52.512;13.448;2023-08-17T10:16:44;27.90;59.20
63219;DHT22;49320;52.512;13.448;2023-08-17T10:19:22;27.90;59.00
63219;DHT22;49320;52.512;13.448;2023-08-17T10:22:05;28.00;58.90
63219;DHT22;49320;52.512;13.448;2023-08-17T10:24:45;28.00;58.80
63219;DHT22;49320;52.512;13.448;2023-08-17T10:27:13;28.10;58.10
63219;DHT22;49320;52.512;13.448;2023-08-17T10:29:42;28.00;58.80
63219;DHT22;49320;52.512;13.448;2023-08-17T10:32:11;28.00;58.70
63219;DHT22;49320;52.512;13.448;2023-08-17T10:34:42;28.00;58.80
63219;DHT22;49320;52.512;13.448;2023-08-17T10:37:10;27.90;58.10
63219;DHT22;49320;52.512;13.448;2023-08-17T10:39:45;27.90;58.80
63219;DHT22;49320;52.512;13.448;2023-08-17T10:44:48;27.80;58.60
63219;DHT22;49320;52.512;13.448;2023-08-17T10:47:25;27.70;58.60
63219;DHT22;49320;52.512;13.448;2023-08-17T10:50:05;27.80;59.30
63219;DHT22;49320;52.512;13.448;2023-08-17T10:52:48;27.80;59.30
63219;DHT22;49320;52.512;13.448;2023-08-17T10:55:16;27.80;59.30
63219;DHT22;49320;52.512;13.448;2023-08-17T10:57:45;27.70;59.20
63219;DHT22;49320;52.512;13.448;2023-08-17T11:02:54;27.90;59.80
63219;DHT22;49320;52.512;13.448;2023-08-17T11:08:33;27.90;59.30
63219;DHT22;49320;52.512;13.448;2023-08-17T11:11:13;27.90;59.30
63219;DHT22;49320;52.512;13.448;2023-08-17T11:13:42;27.90;59.40
63219;DHT22;49320;52.512;13.448;2023-08-17T11:16:12;27.90;59.40
63219;DHT22;49320;52.512;13.448;2023-08-17T11:18:44;28.00;59.50
63219;DHT22;49320;52.512;13.448;2023-08-17T11:21:12;28.10;59.50
63219;DHT22;49320;52.512;13.448;2023-08-17T11:23:45;28.00;59.40
63219;DHT22;49320;52.512;13.448;2023-08-17T11:26:16;28.00;58.90
63219;DHT22;49320;52.512;13.448;2023-08-17T11:28:43;28.00;59.40
63219;DHT22;49320;52.512;13.448;2023-08-17T11:31:13;28.00;59.40
63219;DHT22;49320;52.512;13.448;2023-08-17T11:33:42;28.10;59.50
63219;DHT22;49320;52.512;13.448;2023-08-17T11:36:09;28.00;59.50
63219;DHT22;49320;52.512;13.448;2023-08-17T11:38:42;28.00;59.10
63219;DHT22;49320;52.512;13.448;2023-08-17T11:41:10;28.10;59.70
63219;DHT22;49320;52.512;13.448;2023-08-17T11:43:45;28.00;59.70
63219;DHT22;49320;52.512;13.448;2023-08-17T11:46:13;28.10;59.80
63219;DHT22;49320;52.512;13.448;2023-08-17T11:48:40;28.10;59.80
63219;DHT22;49320;52.512;13.448;2023-08-17T11:51:07;28.20;59.80
63219;DHT22;49320;52.512;13.448;2023-08-17T11:53:35;28.20;59.80
63219;DHT22;49320;52.512;13.448;2023-08-17T11:56:03;28.30;59.90
63219;DHT22;49320;52.512;13.448;2023-08-17T11:58:40;28.40;59.90
63219;DHT22;49320;52.512;13.448;2023-08-17T12:01:10;28.50;59.90
63219;DHT22;49320;52.512;13.448;2023-08-17T12:03:39;28.50;59.80
63219;DHT22;49320;52.512;13.448;2023-08-17T12:06:07;28.60;59.70
63219;DHT22;49320;52.512;13.448;2023-08-17T12:08:35;28.60;59.60
63219;DHT22;49320;52.512;13.448;2023-08-17T12:11:03;28.80;59.70
63219;DHT22;49320;52.512;13.448;2023-08-17T12:13:34;28.80;59.60
63219;DHT22;49320;52.512;13.448;2023-08-17T12:16:01;28.80;59.60
63219;DHT22;49320;52.512;13.448;2023-08-17T12:18:32;28.90;59.60
63219;DHT22;49320;52.512;13.448;2023-08-17T12:21:00;28.90;59.60
63219;DHT22;49320;52.512;13.448;2023-08-17T12:23:28;29.00;59.70
63219;DHT22;49320;52.512;13.448;2023-08-17T12:25:55;29.10;59.70
63219;DHT22;49320;52.512;13.448;2023-08-17T12:28:23;29.20;59.00
63219;DHT22;49320;52.512;13.448;2023-08-17T12:30:59;29.30;59.50
63219;DHT22;49320;52.512;13.448;2023-08-17T12:33:27;29.40;59.30
63219;DHT22;49320;52.512;13.448;2023-08-17T12:35:54;29.50;59.40
63219;DHT22;49320;52.512;13.448;2023-08-17T12:38:24;29.60;59.40
63219;DHT22;49320;52.512;13.448;2023-08-17T12:40:52;29.70;59.20
63219;DHT22;49320;52.512;13.448;2023-08-17T12:43:20;29.90;59.30
63219;DHT22;49320;52.512;13.448;2023-08-17T12:45:47;29.90;58.80
63219;DHT22;49320;52.512;13.448;2023-08-17T12:48:14;30.00;58.70
63219;DHT22;49320;52.512;13.448;2023-08-17T12:50:41;30.10;58.60
63219;DHT22;49320;52.512;13.448;2023-08-17T12:53:10;30.10;58.50
63219;DHT22;49320;52.512;13.448;2023-08-17T12:55:37;30.20;58.40
63219;DHT22;49320;52.512;13.448;2023-08-17T12:58:04;30.30;58.30
63219;DHT22;49320;52.512;13.448;2023-08-17T13:00:34;30.30;58.20
63219;DHT22;49320;52.512;13.448;2023-08-17T13:03:01;30.30;58.00
63219;DHT22;49320;52.512;13.448;2023-08-17T13:05:28;30.30;57.90
63219;DHT22;49320;52.512;13.448;2023-08-17T13:07:55;30.40;58.50
63219;DHT22;49320;52.512;13.448;2023-08-17T13:10:22;30.40;57.60
63219;DHT22;49320;52.512;13.448;2023-08-17T13:12:49;30.40;57.50
63219;DHT22;49320;52.512;13.448;2023-08-17T13:15:20;30.60;57.00
63219;DHT22;49320;52.512;13.448;2023-08-17T13:17:48;30.50;57.50
63219;DHT22;49320;52.512;13.448;2023-08-17T13:20:15;30.50;57.50
63219;DHT22;49320;52.512;13.448;2023-08-17T13:22:41;30.50;57.40
63219;DHT22;49320;52.512;13.448;2023-08-17T13:25:08;30.50;57.40
63219;DHT22;49320;52.512;13.448;2023-08-17T13:27:35;30.50;56.50
63219;DHT22;49320;52.512;13.448;2023-08-17T13:30:02;30.40;57.20
63219;DHT22;49320;52.512;13.448;2023-08-17T13:32:29;30.60;57.20
63219;DHT22;49320;52.512;13.448;2023-08-17T13:34:56;30.60;57.20
63219;DHT22;49320;52.512;13.448;2023-08-17T13:37:24;30.60;57.10
63219;DHT22;49320;52.512;13.448;2023-08-17T13:39:51;30.60;57.00
63219;DHT22;49320;52.512;13.448;2023-08-17T13:42:17;30.60;57.00
63219;DHT22;49320;52.512;13.448;2023-08-17T13:44:44;30.70;57.00
63219;DHT22;49320;52.512;13.448;2023-08-17T13:47:12;30.70;57.00
63219;DHT22;49320;52.512;13.448;2023-08-17T13:49:39;30.60;56.90
63219;DHT22;49320;52.512;13.448;2023-08-17T13:52:06;30.70;56.90
63219;DHT22;49320;52.512;13.448;2023-08-17T13:57:00;30.80;56.40
63219;DHT22;49320;52.512;13.448;2023-08-17T13:59:27;30.80;57.50
63219;DHT22;49320;52.512;13.448;2023-08-17T14:01:54;30.80;56.90
63219;DHT22;49320;52.512;13.448;2023-08-17T14:04:22;30.80;56.80
63219;DHT22;49320;52.512;13.448;2023-08-17T14:06:49;30.90;56.60
63219;DHT22;49320;52.512;13.448;2023-08-17T14:09:17;31.00;56.60
63219;DHT22;49320;52.512;13.448;2023-08-17T14:11:44;31.00;56.50
63219;DHT22;49320;52.512;13.448;2023-08-17T14:14:11;30.90;56.30
63219;DHT22;49320;52.512;13.448;2023-08-17T14:16:38;30.90;56.40
63219;DHT22;49320;52.512;13.448;2023-08-17T14:19:05;30.90;56.40
63219;DHT22;49320;52.512;13.448;2023-08-17T14:21:32;31.00;56.40
63219;DHT22;49320;52.512;13.448;2023-08-17T14:23:58;31.00;56.40
63219;DHT22;49320;52.512;13.448;2023-08-17T14:26:25;31.00;55.70
63219;DHT22;49320;52.512;13.448;2023-08-17T14:28:52;31.00;56.20
63219;DHT22;49320;52.512;13.448;2023-08-17T14:31:19;30.90;56.00
63219;DHT22;49320;52.512;13.448;2023-08-17T14:33:46;31.00;56.10
63219;DHT22;49320;52.512;13.448;2023-08-17T14:36:14;31.00;56.10
63219;DHT22;49320;52.512;13.448;2023-08-17T14:38:45;31.00;56.10
63219;DHT22;49320;52.512;13.448;2023-08-17T14:41:12;31.00;56.10
63219;DHT22;49320;52.512;13.448;2023-08-17T14:43:39;31.00;56.10
63219;DHT22;49320;52.512;13.448;2023-08-17T14:46:06;31.00;56.10
63219;DHT22;49320;52.512;13.448;2023-08-17T14:48:33;31.00;56.00
63219;DHT22;49320;52.512;13.448;2023-08-17T14:51:00;31.20;56.10
63219;DHT22;49320;52.512;13.448;2023-08-17T14:53:27;31.10;55.90
63219;DHT22;49320;52.512;13.448;2023-08-17T14:55:54;31.10;55.90
63219;DHT22;49320;52.512;13.448;2023-08-17T14:58:21;31.00;55.80
63219;DHT22;49320;52.512;13.448;2023-08-17T15:00:48;31.00;55.90
63219;DHT22;49320;52.512;13.448;2023-08-17T15:03:15;30.90;55.90
63219;DHT22;49320;52.512;13.448;2023-08-17T15:05:42;30.90;56.00
63219;DHT22;49320;52.512;13.448;2023-08-17T15:08:08;30.90;56.00
63219;DHT22;49320;52.512;13.448;2023-08-17T15:10:35;30.80;55.90
63219;DHT22;49320;52.512;13.448;2023-08-17T15:13:02;30.80;56.00
63219;DHT22;49320;52.512;13.448;2023-08-17T15:15:29;30.90;56.10
63219;DHT22;49320;52.512;13.448;2023-08-17T15:17:56;30.80;56.00
63219;DHT22;49320;52.512;13.448;2023-08-17T15:20:23;30.70;56.00
63219;DHT22;49320;52.512;13.448;2023-08-17T15:22:50;30.80;56.00
63219;DHT22;49320;52.512;13.448;2023-08-17T15:25:17;30.50;55.80
63219;DHT22;49320;52.512;13.448;2023-08-17T15:27:44;30.80;55.20
63219;DHT22;49320;52.512;13.448;2023-08-17T15:30:12;30.80;55.90
63219;DHT22;49320;52.512;13.448;2023-08-17T15:32:39;30.80;55.90
63219;DHT22;49320;52.512;13.448;2023-08-17T15:35:07;30.80;55.60
63219;DHT22;49320;52.512;13.448;2023-08-17T15:37:35;30.80;56.10
63219;DHT22;49320;52.512;13.448;2023-08-17T15:40:03;30.90;55.60
63219;DHT22;49320;52.512;13.448;2023-08-17T15:42:31;30.80;56.00
63219;DHT22;49320;52.512;13.448;2023-08-17T15:44:58;30.90;56.00
63219;DHT22;49320;52.512;13.448;2023-08-17T15:47:25;30.90;56.00
63219;DHT22;49320;52.512;13.448;2023-08-17T15:49:52;30.90;56.00
63219;DHT22;49320;52.512;13.448;2023-08-17T15:52:19;30.90;55.90
63219;DHT22;49320;52.512;13.448;2023-08-17T15:54:46;30.80;55.80